Time;durP1;ratioP1;P1;durP2;ratioP2;P2;SDS_P1;SDS_P2;PMS_P1;PMS_P2;Temp;Humidity;BMP_temperature;BMP_pressure;BME280_temperature;BME280_humidity;BME280_pressure;Samples;Min_cycle;Max_cycle;Signal;HPM_P1;HPM_P2
2023/11/08 00:00:05;;;;;;;0.80;0.80;;;;;;;5.57;77.49;98604.00;5088467;28;20101;-79
2023/11/08 00:02:37;;;;;;;0.80;0.80;;;;;;;5.51;77.85;98595.78;5071660;28;20036;-80
2023/11/08 00:05:03;;;;;;;0.75;0.75;;;;;;;5.59;77.74;98601.41;5073497;28;20083;-80
2023/11/08 00:07:29;;;;;;;0.80;0.80;;;;;;;5.82;76.55;98598.06;5076519;28;20051;-80
2023/11/08 00:09:54;;;;;;;0.80;0.80;;;;;;;5.74;76.59;98599.47;5073768;28;20085;-79
2023/11/08 00:12:20;;;;;;;0.80;0.80;;;;;;;5.75;76.50;98606.59;5071993;28;20437;-79
2023/11/08 00:14:46;;;;;;;0.80;0.80;;;;;;;5.73;76.63;98605.59;5074582;28;20668;-79
2023/11/08 00:17:13;;;;;;;0.80;0.80;;;;;;;5.64;77.52;98600.78;5078458;28;20170;-80
2023/11/08 00:19:39;;;;;;;0.75;0.75;;;;;;;5.62;76.77;98590.97;5072069;28;20116;-80
2023/11/08 00:22:04;;;;;;;0.80;0.80;;;;;;;5.25;78.10;98602.47;5076334;28;20082;-80
2023/11/08 00:24:30;;;;;;;0.80;0.80;;;;;;;4.98;80.42;98599.38;5074514;28;20070;-81
2023/11/08 00:26:55;;;;;;;0.77;0.77;;;;;;;4.94;80.38;98608.03;5074818;28;20626;-80
2023/11/08 00:29:24;;;;;;;0.80;0.80;;;;;;;5.12;79.67;98608.88;5075821;28;20480;-80
2023/11/08 00:31:51;;;;;;;0.80;0.80;;;;;;;5.11;79.85;98611.47;5073758;28;20044;-80
2023/11/08 00:34:17;;;;;;;0.80;0.80;;;;;;;5.05;80.92;98612.09;5074647;28;20430;-80
2023/11/08 00:36:43;;;;;;;0.73;0.73;;;;;;;5.17;80.23;98606.47;5075343;28;20140;-81
2023/11/08 00:39:08;;;;;;;0.80;0.80;;;;;;;5.06;81.51;98602.41;5076410;28;20102;-79
2023/11/08 00:41:35;;;;;;;0.90;0.90;;;;;;;5.24;80.99;98602.41;5057519;28;20203;-79
2023/11/08 00:44:02;;;;;;;0.90;0.90;;;;;;;5.26;81.37;98612.22;5071715;28;20397;-79
2023/11/08 00:46:28;;;;;;;0.80;0.80;;;;;;;5.33;81.25;98613.44;5071570;28;20488;-80
2023/11/08 00:48:53;;;;;;;0.80;0.80;;;;;;;5.42;80.14;98619.16;5071193;28;20490;-79
2023/11/08 00:51:22;;;;;;;0.80;0.80;;;;;;;6.04;76.20;98614.97;5069560;28;20094;-81
2023/11/08 00:53:47;;;;;;;0.80;0.80;;;;;;;6.22;75.27;98613.13;5074087;28;20047;-80
2023/11/08 00:56:13;;;;;;;0.73;0.73;;;;;;;6.28;74.62;98616.06;5061536;28;20063;-79
2023/11/08 00:58:39;;;;;;;0.75;0.75;;;;;;;6.34;75.17;98618.97;5072421;28;20093;-79
2023/11/08 01:01:05;;;;;;;0.80;0.80;;;;;;;6.35;75.15;98617.22;5070655;28;20036;-79
2023/11/08 01:03:32;;;;;;;0.75;0.75;;;;;;;6.27;75.64;98622.19;5072972;28;20044;-80
2023/11/08 01:05:57;;;;;;;0.77;0.77;;;;;;;6.41;75.37;98621.03;5075224;28;20582;-79
2023/11/08 01:08:23;;;;;;;0.70;0.70;;;;;;;6.37;75.25;98618.19;5077966;28;20028;-80
2023/11/08 01:10:49;;;;;;;0.70;0.70;;;;;;;6.59;73.83;98620.94;5073921;28;20067;-80
2023/11/08 01:13:14;;;;;;;0.80;0.80;;;;;;;6.61;74.47;98626.28;5073292;28;20037;-80
2023/11/08 01:15:40;;;;;;;0.70;0.70;;;;;;;6.91;72.19;98624.06;5072285;28;20036;-80
2023/11/08 01:18:05;;;;;;;0.70;0.70;;;;;;;6.91;72.59;98626.72;5078462;28;20433;-80
2023/11/08 01:20:31;;;;;;;0.70;0.70;;;;;;;6.96;72.42;98622.50;5074141;28;20107;-80
2023/11/08 01:22:58;;;;;;;0.80;0.80;;;;;;;7.06;72.16;98618.47;5072388;28;20419;-80
2023/11/08 01:25:24;;;;;;;;;;;;;;;7.14;71.92;98627.66;5075696;28;20040;-79
2023/11/08 01:27:49;;;;;;;0.80;0.80;;;;;;;7.04;71.88;98626.38;5089855;28;20323;-80
2023/11/08 01:30:15;;;;;;;0.70;0.70;;;;;;;7.19;71.54;98620.78;5070514;28;20049;-80
2023/11/08 01:32:40;;;;;;;0.80;0.80;;;;;;;7.20;71.63;98622.59;5070496;28;20513;-81
2023/11/08 01:35:06;;;;;;;0.68;0.68;;;;;;;7.06;72.44;98618.47;5070994;28;20093;-81
2023/11/08 01:37:33;;;;;;;0.70;0.70;;;;;;;7.05;72.58;98608.72;5070603;28;20465;-81
2023/11/08 01:39:59;;;;;;;0.80;0.80;;;;;;;6.81;73.32;98613.91;5071237;28;20105;-81
2023/11/08 01:42:25;;;;;;;0.77;0.77;;;;;;;6.66;73.94;98611.53;5055581;28;20044;-81
2023/11/08 01:44:50;;;;;;;0.80;0.80;;;;;;;6.65;74.03;98618.53;5075323;28;20097;-81
2023/11/08 01:47:17;;;;;;;0.80;0.80;;;;;;;6.67;74.02;98613.31;5073881;28;20047;-80
2023/11/08 01:49:43;;;;;;;0.80;0.80;;;;;;;6.85;73.27;98614.09;5075171;28;20043;-80
2023/11/08 01:52:10;;;;;;;0.70;0.70;;;;;;;6.93;73.21;98604.69;5055526;28;20052;-80
2023/11/08 01:54:39;;;;;;;0.70;0.70;;;;;;;6.93;73.01;98602.03;5072383;28;20150;-80
2023/11/08 01:57:05;;;;;;;0.80;0.80;;;;;;;6.83;73.47;98598.94;5076422;28;20044;-81
2023/11/08 01:59:31;;;;;;;0.80;0.80;;;;;;;6.82;73.61;98598.06;5079549;28;20032;-81
2023/11/08 02:01:57;;;;;;;0.73;0.73;;;;;;;6.85;73.56;98597.25;5087492;22;20052;-77
2023/11/08 02:04:24;;;;;;;0.80;0.80;;;;;;;6.87;73.52;98604.44;5010905;28;20487;-76
2023/11/08 02:06:49;;;;;;;0.80;0.80;;;;;;;6.74;73.46;98607.44;5026689;28;20144;-76
2023/11/08 02:09:16;;;;;;;0.80;0.80;;;;;;;6.76;73.65;98608.41;5017574;28;21262;-75
2023/11/08 02:11:43;;;;;;;0.80;0.80;;;;;;;6.82;72.86;98608.66;5015599;28;20034;-76
2023/11/08 02:14:09;;;;;;;0.80;0.80;;;;;;;6.74;73.27;98610.06;5021568;28;20033;-76
2023/11/08 02:16:34;;;;;;;0.80;0.80;;;;;;;6.64;73.20;98607.88;5019453;28;20052;-75
2023/11/08 02:18:59;;;;;;;0.80;0.80;;;;;;;6.55;73.95;98604.84;5018718;28;20484;-76
2023/11/08 02:21:25;;;;;;;0.80;0.80;;;;;;;6.61;73.39;98610.38;5017185;28;20042;-76
2023/11/08 02:23:50;;;;;;;0.70;0.70;;;;;;;6.40;74.10;98603.34;5032780;28;20502;-75
2023/11/08 02:26:16;;;;;;;0.70;0.70;;;;;;;6.41;74.07;98602.50;5020769;28;20183;-76
2023/11/08 02:28:42;;;;;;;0.73;0.73;;;;;;;6.53;73.83;98599.47;5022613;28;20120;-76
2023/11/08 02:31:07;;;;;;;0.80;0.80;;;;;;;6.61;73.39;98597.13;5017399;28;20050;-76
2023/11/08 02:33:34;;;;;;;0.90;0.90;;;;;;;6.73;73.08;98584.41;5035830;28;20421;-76
2023/11/08 02:36:02;;;;;;;0.80;0.80;;;;;;;6.61;73.33;98595.41;5014387;28;20328;-76
2023/11/08 02:38:28;;;;;;;0.80;0.80;;;;;;;6.73;73.02;98595.00;5016169;28;20073;-76
2023/11/08 02:40:53;;;;;;;0.77;0.77;;;;;;;6.74;73.50;98602.13;5024463;28;20033;-76
2023/11/08 02:43:19;;;;;;;0.70;0.70;;;;;;;6.76;72.76;98602.22;5036706;28;20123;-76
2023/11/08 02:45:44;;;;;;;0.70;0.70;;;;;;;6.69;73.07;98601.03;5037476;28;20155;-76
2023/11/08 02:48:10;;;;;;;0.80;0.80;;;;;;;6.52;73.59;98602.97;5038027;28;20040;-76
2023/11/08 02:50:40;;;;;;;0.80;0.80;;;;;;;6.31;74.42;98602.94;5041465;28;20087;-76
2023/11/08 02:53:07;;;;;;;0.75;0.75;;;;;;;6.06;75.61;98600.06;5040385;28;20149;-76
2023/11/08 02:55:34;;;;;;;0.88;0.88;;;;;;;6.22;74.82;98598.97;5037773;28;20041;-76
2023/11/08 02:58:00;;;;;;;0.80;0.80;;;;;;;5.94;75.85;98607.44;5035897;28;20045;-76
2023/11/08 03:00:25;;;;;;;0.70;0.70;;;;;;;5.97;75.65;98619.06;5036092;28;20047;-76
2023/11/08 03:02:51;;;;;;;0.80;0.80;;;;;;;6.09;75.41;98618.75;5040936;28;20045;-76
2023/11/08 03:05:22;;;;;;;0.85;0.85;;;;;;;6.27;74.70;98610.69;5036247;28;20479;-76
2023/11/08 03:07:53;;;;;;;0.77;0.77;;;;;;;6.36;74.76;98609.34;5038292;28;20041;-76
2023/11/08 03:10:19;;;;;;;0.80;0.80;;;;;;;6.47;74.01;98603.59;5053509;28;20041;-76
2023/11/08 03:12:46;;;;;;;0.80;0.80;;;;;;;6.36;74.90;98609.34;5052397;28;21110;-77
2023/11/08 03:15:11;;;;;;;0.82;0.82;;;;;;;6.46;74.77;98608.00;5038600;28;20151;-76
2023/11/08 03:17:40;;;;;;;0.80;0.80;;;;;;;6.49;74.84;98610.78;5038695;28;20076;-76
2023/11/08 03:20:08;;;;;;;0.65;0.65;;;;;;;6.51;74.58;98611.75;5037383;28;20037;-77
2023/11/08 03:22:35;;;;;;;0.70;0.70;;;;;;;6.47;74.87;98616.84;5036441;28;20115;-77
2023/11/08 03:25:01;;;;;;;0.70;0.70;;;;;;;6.44;74.85;98614.97;5036341;28;20029;-77
2023/11/08 03:27:27;;;;;;;0.80;0.80;;;;;;;6.46;75.11;98617.69;5034215;28;20037;-76
2023/11/08 03:29:54;;;;;;;0.70;0.70;;;;;;;6.43;75.00;98619.38;5038046;28;20039;-77
2023/11/08 03:32:22;;;;;;;0.80;0.80;;;;;;;6.49;75.49;98623.13;5036543;28;20087;-76
2023/11/08 03:34:48;;;;;;;0.70;0.70;;;;;;;6.47;75.18;98624.78;5035969;28;20509;-77
2023/11/08 03:37:13;;;;;;;0.70;0.70;;;;;;;6.42;75.69;98628.19;5036482;28;20597;-77
2023/11/08 03:39:39;;;;;;;0.70;0.70;;;;;;;6.66;74.69;98632.72;5039187;28;20037;-77
2023/11/08 03:42:05;;;;;;;0.70;0.70;;;;;;;6.74;74.46;98631.28;5035760;28;20056;-76
2023/11/08 03:44:30;;;;;;;0.70;0.70;;;;;;;6.83;74.15;98636.06;5037594;28;20483;-76
2023/11/08 03:46:55;;;;;;;0.80;0.80;;;;;;;6.86;73.48;98626.50;5039407;28;20079;-76
2023/11/08 03:49:21;;;;;;;0.70;0.70;;;;;;;6.83;73.96;98634.31;5039948;28;20082;-76
2023/11/08 03:51:46;;;;;;;0.70;0.70;;;;;;;6.85;74.13;98637.97;5038849;28;20494;-76
2023/11/08 03:54:12;;;;;;;0.70;0.70;;;;;;;6.77;74.62;98639.38;5036260;28;20057;-77
2023/11/08 03:56:38;;;;;;;0.70;0.70;;;;;;;6.68;74.86;98636.34;5036491;28;20123;-76
2023/11/08 03:59:04;;;;;;;0.70;0.70;;;;;;;6.75;74.81;98645.44;5035492;28;20045;-76
2023/11/08 04:01:30;;;;;;;0.70;0.70;;;;;;;6.86;74.24;98639.78;5033926;28;20037;-76
2023/11/08 04:03:56;;;;;;;0.70;0.70;;;;;;;7.07;73.38;98630.88;5035281;28;20041;-76
2023/11/08 04:06:21;;;;;;;0.70;0.70;;;;;;;7.13;72.89;98632.03;5037535;28;20056;-77
2023/11/08 04:08:47;;;;;;;0.77;0.77;;;;;;;7.19;72.95;98634.06;5036415;28;20045;-76
2023/11/08 04:11:13;;;;;;;0.70;0.70;;;;;;;7.17;72.91;98633.97;5035766;28;20048;-77
2023/11/08 04:13:38;;;;;;;0.70;0.70;;;;;;;7.24;73.01;98636.91;5039851;28;20055;-76
2023/11/08 04:16:04;;;;;;;0.70;0.70;;;;;;;7.38;72.37;98638.38;5037307;28;20037;-76
2023/11/08 04:18:30;;;;;;;0.70;0.70;;;;;;;7.30;72.59;98637.13;5036196;28;20098;-76
2023/11/08 04:20:55;;;;;;;0.70;0.70;;;;;;;7.08;73.68;98643.31;5036024;28;20161;-77
2023/11/08 04:23:20;;;;;;;0.70;0.70;;;;;;;7.13;73.08;98631.13;5039504;28;20128;-76
2023/11/08 04:25:49;;;;;;;0.70;0.70;;;;;;;7.10;73.24;98641.63;5037675;28;20065;-76
2023/11/08 04:28:15;;;;;;;0.70;0.70;;;;;;;7.16;73.21;98636.56;5032791;28;20033;-77
2023/11/08 04:30:40;;;;;;;0.73;0.73;;;;;;;7.16;73.68;98642.78;5034962;28;20099;-76
2023/11/08 04:33:05;;;;;;;0.80;0.80;;;;;;;7.19;73.15;98629.66;5034933;28;20029;-76
2023/11/08 04:35:31;;;;;;;0.70;0.70;;;;;;;7.13;72.90;98629.38;5035943;28;20403;-77
2023/11/08 04:37:56;;;;;;;0.70;0.70;;;;;;;7.22;72.75;98635.91;5037844;28;20044;-76
2023/11/08 04:40:22;;;;;;;0.75;0.75;;;;;;;7.12;73.19;98630.22;5038860;28;20043;-77
2023/11/08 04:42:48;;;;;;;0.80;0.80;;;;;;;7.01;73.35;98633.31;5036472;28;20056;-77
2023/11/08 04:45:13;;;;;;;0.70;0.70;;;;;;;7.00;73.67;98635.06;5038376;28;20435;-76
2023/11/08 04:47:39;;;;;;;0.80;0.80;;;;;;;6.92;74.26;98632.06;5038900;28;20047;-76
2023/11/08 04:50:05;;;;;;;0.70;0.70;;;;;;;7.05;73.44;98620.22;5035479;28;20099;-77
2023/11/08 04:52:32;;;;;;;0.80;0.80;;;;;;;6.92;74.31;98634.72;5035818;28;20784;-76
2023/11/08 04:54:58;;;;;;;0.73;0.73;;;;;;;7.00;73.97;98628.84;5037018;28;20064;-76
2023/11/08 04:57:24;;;;;;;0.80;0.80;;;;;;;7.14;73.07;98625.91;5036858;28;20033;-76
2023/11/08 04:59:49;;;;;;;0.73;0.73;;;;;;;7.11;73.39;98630.19;5023081;28;20098;-76
2023/11/08 05:02:16;;;;;;;0.70;0.70;;;;;;;7.24;73.08;98629.84;5036011;28;20454;-77
2023/11/08 05:04:45;;;;;;;0.70;0.70;;;;;;;7.29;72.68;98619.41;5034075;28;20045;-77
2023/11/08 05:07:13;;;;;;;0.75;0.75;;;;;;;7.30;72.47;98634.47;5034271;28;20036;-76
2023/11/08 05:09:40;;;;;;;0.70;0.70;;;;;;;7.17;73.23;98628.66;5036649;28;20125;-76
2023/11/08 05:12:07;;;;;;;0.80;0.80;;;;;;;7.19;73.14;98631.41;5037410;28;20403;-77
2023/11/08 05:14:33;;;;;;;0.70;0.70;;;;;;;7.01;73.76;98643.91;5038462;28;20576;-76
2023/11/08 05:17:00;;;;;;;0.70;0.70;;;;;;;6.80;74.69;98643.88;5035537;28;20037;-77
2023/11/08 05:19:25;;;;;;;0.70;0.70;;;;;;;6.89;74.50;98642.53;5034241;28;20172;-77
2023/11/08 05:21:50;;;;;;;0.77;0.77;;;;;;;6.93;73.86;98644.47;5033795;28;20628;-78
2023/11/08 05:24:16;;;;;;;0.73;0.73;;;;;;;6.99;74.11;98650.88;5033623;28;20040;-77
2023/11/08 05:26:42;;;;;;;0.70;0.70;;;;;;;6.97;74.13;98649.91;5022743;28;20067;-77
2023/11/08 05:29:08;;;;;;;0.70;0.70;;;;;;;7.01;74.22;98647.47;5037323;28;20112;-77
2023/11/08 05:31:34;;;;;;;0.70;0.70;;;;;;;7.04;73.99;98658.22;5034349;28;20119;-78
2023/11/08 05:34:03;;;;;;;0.70;0.70;;;;;;;7.00;73.90;98650.06;5034488;28;20114;-77
2023/11/08 05:36:31;;;;;;;0.70;0.70;;;;;;;7.05;74.20;98649.41;5037804;28;20041;-77
2023/11/08 05:38:58;;;;;;;0.70;0.70;;;;;;;6.91;73.71;98646.16;5035836;28;20091;-77
2023/11/08 05:41:23;;;;;;;0.60;0.60;;;;;;;6.97;74.27;98650.81;5033614;28;20042;-77
2023/11/08 05:43:57;;;;;;;0.70;0.70;;;;;;;6.93;73.99;98646.22;5018535;28;20064;-75
2023/11/08 05:46:24;;;;;;;0.80;0.80;;;;;;;6.87;74.14;98659.25;5035392;28;20090;-75
2023/11/08 05:48:50;;;;;;;0.60;0.60;;;;;;;6.97;73.76;98655.22;5039716;28;20064;-75
2023/11/08 05:51:15;;;;;;;0.80;0.80;;;;;;;6.91;73.67;98654.13;5040804;28;20715;-76
2023/11/08 05:53:40;;;;;;;0.70;0.70;;;;;;;7.03;73.53;98651.06;5035063;28;20122;-76
2023/11/08 05:56:06;;;;;;;0.70;0.70;;;;;;;6.86;74.36;98657.44;5050800;28;20040;-76
2023/11/08 05:58:37;;;;;;;0.65;0.65;;;;;;;6.87;74.12;98653.94;5038324;28;20449;-76
2023/11/08 06:01:04;;;;;;;0.70;0.70;;;;;;;6.77;74.59;98657.94;5040819;28;20123;-77
2023/11/08 06:03:30;;;;;;;0.75;0.75;;;;;;;6.80;74.77;98663.34;5036159;28;20140;-77
2023/11/08 06:05:56;;;;;;;0.70;0.70;;;;;;;6.70;75.28;98658.50;5041118;28;20444;-77
2023/11/08 06:08:21;;;;;;;0.70;0.70;;;;;;;6.71;75.13;98665.63;5034693;28;20032;-79
2023/11/08 06:10:48;;;;;;;0.70;0.70;;;;;;;6.77;74.86;98671.19;5038368;28;20549;-76
2023/11/08 06:13:13;;;;;;;0.80;0.80;;;;;;;6.89;74.37;98663.75;5052098;28;20040;-77
2023/11/08 06:15:39;;;;;;;0.80;0.80;;;;;;;6.85;74.25;98667.13;5038819;28;20033;-76
2023/11/08 06:18:04;;;;;;;0.70;0.70;;;;;;;6.97;74.13;98669.38;5042345;28;20056;-76
2023/11/08 06:20:30;;;;;;;0.70;0.70;;;;;;;6.80;74.69;98670.41;5037646;28;20041;-76
2023/11/08 06:22:56;;;;;;;0.70;0.70;;;;;;;6.76;75.41;98672.03;5041360;28;20041;-77
2023/11/08 06:25:22;;;;;;;0.80;0.80;;;;;;;6.66;75.38;98675.16;5037169;28;20046;-77
2023/11/08 06:27:48;;;;;;;0.80;0.80;;;;;;;6.68;75.53;98670.81;5039419;28;20110;-77
2023/11/08 06:30:14;;;;;;;0.80;0.80;;;;;;;6.74;74.95;98673.72;5038482;28;20294;-76
2023/11/08 06:32:39;;;;;;;0.70;0.70;;;;;;;6.80;74.64;98684.56;5041840;28;20433;-77
2023/11/08 06:35:05;;;;;;;0.70;0.70;;;;;;;7.00;73.55;98682.78;5039860;28;20451;-77
2023/11/08 06:37:31;;;;;;;0.70;0.70;;;;;;;7.12;73.99;98682.38;5038951;28;20037;-77
2023/11/08 06:39:57;;;;;;;0.70;0.70;;;;;;;7.10;74.05;98679.69;5038288;28;20038;-77
2023/11/08 06:42:22;;;;;;;0.70;0.70;;;;;;;7.04;74.24;98683.81;5039749;28;20095;-76
2023/11/08 06:44:48;;;;;;;0.80;0.80;;;;;;;7.05;73.93;98685.63;5038754;28;20060;-77
2023/11/08 06:47:13;;;;;;;0.80;0.80;;;;;;;7.09;74.34;98690.22;5039993;28;20573;-76
2023/11/08 06:49:39;;;;;;;0.80;0.80;;;;;;;6.95;74.55;98684.34;5053359;28;20519;-76
2023/11/08 06:52:05;;;;;;;0.70;0.70;;;;;;;7.06;74.32;98692.75;5037785;28;20085;-77
2023/11/08 06:54:33;;;;;;;0.70;0.70;;;;;;;7.13;73.80;98690.41;5036919;28;20454;-77
2023/11/08 06:56:58;;;;;;;0.70;0.70;;;;;;;7.16;73.76;98701.16;5036456;28;20722;-77
2023/11/08 06:59:24;;;;;;;0.70;0.70;;;;;;;7.19;73.90;98698.63;5036634;28;20666;-77
2023/11/08 07:01:50;;;;;;;0.80;0.80;;;;;;;7.14;73.66;98692.25;5035337;28;20427;-76
2023/11/08 07:04:15;;;;;;;0.80;0.80;;;;;;;7.19;73.55;98701.28;5037169;28;20025;-75
2023/11/08 07:06:41;;;;;;;0.70;0.70;;;;;;;7.06;73.84;98706.00;5033820;28;20676;-76
2023/11/08 07:09:08;;;;;;;0.70;0.70;;;;;;;6.92;74.50;98705.41;5042997;28;20471;-75
2023/11/08 07:11:33;;;;;;;;;;;;;;;6.83;75.15;98705.94;5039517;28;20099;-76
2023/11/08 07:13:59;;;;;;;0.80;0.80;;;;;;;6.89;74.97;98713.22;5038611;28;20362;-76
2023/11/08 07:16:25;;;;;;;0.77;0.77;;;;;;;7.27;73.38;98717.50;5034236;28;20115;-76
2023/11/08 07:18:50;;;;;;;0.80;0.80;;;;;;;7.42;72.89;98718.13;5044572;28;20045;-76
2023/11/08 07:21:20;;;;;;;0.70;0.70;;;;;;;7.39;72.53;98720.69;5036180;28;20091;-76
2023/11/08 07:23:46;;;;;;;0.70;0.70;;;;;;;7.46;72.14;98720.09;5042988;28;20095;-76
2023/11/08 07:26:13;;;;;;;0.70;0.70;;;;;;;7.76;71.36;98719.53;5036206;28;20056;-76
2023/11/08 07:28:41;;;;;;;0.70;0.70;;;;;;;8.01;70.53;98717.84;5042279;28;20116;-76
2023/11/08 07:31:08;;;;;;;0.80;0.80;;;;;;;8.14;69.76;98720.09;5043512;28;20049;-76
2023/11/08 07:33:34;;;;;;;;;;;;;;;8.14;69.71;98720.09;5033977;28;20033;-76
2023/11/08 07:36:00;;;;;;;0.75;0.75;;;;;;;8.04;70.06;98715.28;5035937;28;19921;-76
2023/11/08 07:38:25;;;;;;;0.70;0.70;;;;;;;8.25;69.11;98718.78;5052437;28;20055;-76
2023/11/08 07:40:51;;;;;;;0.60;0.60;;;;;;;8.21;69.39;98730.13;5036615;28;20466;-76
2023/11/08 07:43:17;;;;;;;0.60;0.60;;;;;;;7.90;71.04;98731.59;5031772;28;20044;-76
2023/11/08 07:45:42;;;;;;;0.70;0.70;;;;;;;7.99;69.93;98725.72;5036457;28;20095;-76
2023/11/08 07:48:07;;;;;;;0.70;0.70;;;;;;;8.53;68.47;98725.16;5039999;28;20814;-76
2023/11/08 07:50:34;;;;;;;0.70;0.70;;;;;;;8.81;67.62;98738.59;5036906;28;20032;-76
2023/11/08 07:53:00;;;;;;;0.80;0.80;;;;;;;9.21;66.09;98724.06;5035578;28;20037;-76
2023/11/08 07:55:25;;;;;;;0.70;0.70;;;;;;;9.62;64.92;98735.19;5042719;28;20031;-76
2023/11/08 07:57:50;;;;;;;0.70;0.70;;;;;;;10.20;62.77;98734.34;5036929;28;20112;-76
2023/11/08 08:00:22;;;;;;;0.70;0.70;;;;;;;10.54;61.72;98728.31;5036966;28;20111;-76
2023/11/08 08:02:48;;;;;;;0.60;0.60;;;;;;;10.41;61.44;98728.81;5038600;28;20094;-76
2023/11/08 08:05:13;;;;;;;0.60;0.60;;;;;;;10.91;59.92;98727.56;5036350;28;20037;-78
2023/11/08 08:07:39;;;;;;;0.60;0.60;;;;;;;11.13;59.71;98733.53;5041597;28;20043;-75
2023/11/08 08:10:06;;;;;;;0.60;0.60;;;;;;;11.50;58.29;98732.72;5037577;28;20049;-75
2023/11/08 08:12:35;;;;;;;0.60;0.60;;;;;;;11.61;58.30;98732.97;5035262;28;20045;-76
2023/11/08 08:15:01;;;;;;;0.60;0.60;;;;;;;11.36;57.62;98728.78;5036700;28;20043;-76
2023/11/08 08:17:27;;;;;;;0.60;0.60;;;;;;;11.93;56.72;98739.13;5037152;28;20045;-76
2023/11/08 08:19:55;;;;;;;0.57;0.57;;;;;;;11.77;57.51;98735.16;5033439;28;20040;-76
2023/11/08 08:22:21;;;;;;;0.57;0.57;;;;;;;11.60;57.39;98732.09;5034966;28;20041;-76
2023/11/08 08:24:48;;;;;;;0.60;0.60;;;;;;;11.90;57.06;98733.72;5036726;28;20137;-76
2023/11/08 08:27:14;;;;;;;0.60;0.60;;;;;;;11.90;56.37;98734.63;5041738;28;20041;-76
2023/11/08 08:29:39;;;;;;;0.50;0.50;;;;;;;12.19;55.28;98726.38;5035541;28;20406;-76
2023/11/08 08:32:05;;;;;;;0.50;0.50;;;;;;;11.88;56.60;98725.69;5033748;28;20120;-76
2023/11/08 08:34:30;;;;;;;0.50;0.50;;;;;;;12.12;56.03;98725.34;5034147;28;20193;-76
2023/11/08 08:36:56;;;;;;;0.50;0.50;;;;;;;12.55;54.76;98718.22;5034186;28;20049;-75
2023/11/08 08:39:27;;;;;;;0.52;0.52;;;;;;;12.55;54.75;98729.88;5041253;28;20079;-75
2023/11/08 08:41:53;;;;;;;0.50;0.50;;;;;;;13.05;53.97;98727.31;5036646;28;20039;-75
2023/11/08 08:44:19;;;;;;;0.40;0.40;;;;;;;12.17;55.44;98725.41;5039064;28;20049;-75
2023/11/08 08:46:45;;;;;;;0.50;0.50;;;;;;;11.71;56.38;98730.56;5036140;28;20041;-76
2023/11/08 08:49:12;;;;;;;0.40;0.40;;;;;;;11.69;57.55;98720.69;5041467;28;20131;-76
2023/11/08 08:51:38;;;;;;;0.52;0.52;;;;;;;11.72;57.25;98721.69;5036667;28;20792;-75
2023/11/08 08:54:06;;;;;;;0.60;0.60;;;;;;;12.56;54.78;98725.41;5036155;28;20091;-75
2023/11/08 08:56:35;;;;;;;0.50;0.50;;;;;;;12.83;53.62;98709.00;5034354;28;20045;-75
2023/11/08 08:59:01;;;;;;;0.50;0.50;;;;;;;12.75;53.40;98711.53;5052046;28;20073;-75
2023/11/08 09:01:26;;;;;;;0.50;0.50;;;;;;;12.65;53.91;98711.31;5036779;28;20067;-76
2023/11/08 09:03:52;;;;;;;0.50;0.50;;;;;;;12.97;52.62;98715.53;5037421;28;20033;-75
2023/11/08 09:06:19;;;;;;;0.50;0.50;;;;;;;13.08;51.74;98713.97;5034688;28;20132;-75
2023/11/08 09:08:45;;;;;;;0.60;0.60;;;;;;;13.14;51.33;98706.94;5026101;28;20604;-75
2023/11/08 09:11:10;;;;;;;0.50;0.50;;;;;;;13.29;50.31;98712.59;5049371;28;20399;-76
2023/11/08 09:13:36;;;;;;;0.47;0.47;;;;;;;12.95;51.91;98711.03;5034592;28;20047;-76
2023/11/08 09:16:03;;;;;;;0.50;0.50;;;;;;;13.45;49.62;98720.00;5035632;28;20041;-75
2023/11/08 09:18:28;;;;;;;0.47;0.47;;;;;;;14.08;49.04;98716.59;5023652;28;20040;-76
2023/11/08 09:20:54;;;;;;;0.40;0.40;;;;;;;14.23;48.68;98717.66;5037857;28;20038;-76
2023/11/08 09:23:20;;;;;;;0.40;0.40;;;;;;;14.59;48.04;98710.16;5048139;28;20050;-76
2023/11/08 09:25:46;;;;;;;0.40;0.40;;;;;;;15.27;46.03;98708.25;5053504;28;20052;-76
2023/11/08 09:28:12;;;;;;;0.30;0.30;;;;;;;15.00;47.27;98707.09;5039759;28;20037;-76
2023/11/08 09:30:37;;;;;;;0.40;0.40;;;;;;;14.79;46.64;98717.56;5036880;28;20033;-76
2023/11/08 09:33:03;;;;;;;0.40;0.40;;;;;;;14.91;46.36;98716.81;5039678;28;20036;-76
2023/11/08 09:35:28;;;;;;;0.40;0.40;;;;;;;15.22;45.87;98718.03;5040331;28;20040;-76
2023/11/08 09:37:55;;;;;;;0.50;0.50;;;;;;;14.64;46.77;98720.97;5044972;28;20033;-75
2023/11/08 09:40:21;;;;;;;0.50;0.50;;;;;;;14.72;46.59;98729.13;5039305;28;20052;-75
2023/11/08 09:42:48;;;;;;;0.57;0.57;;;;;;;14.49;46.72;98713.63;5037985;28;20061;-76
2023/11/08 09:45:17;;;;;;;0.50;0.50;;;;;;;14.30;47.13;98720.47;5039064;28;20502;-75
2023/11/08 09:47:43;;;;;;;0.40;0.40;;;;;;;15.16;46.53;98724.25;5037875;28;20033;-76
2023/11/08 09:50:09;;;;;;;0.50;0.50;;;;;;;15.63;45.97;98718.47;5038030;28;20083;-76
2023/11/08 09:52:36;;;;;;;0.40;0.40;;;;;;;14.98;46.05;98727.63;5039342;28;20339;-76
2023/11/08 09:55:02;;;;;;;0.40;0.40;;;;;;;15.66;45.19;98721.19;5041201;28;20052;-75
2023/11/08 09:57:31;;;;;;;0.40;0.40;;;;;;;16.09;44.00;98717.03;5040768;28;20334;-76
2023/11/08 09:59:57;;;;;;;0.30;0.30;;;;;;;14.79;46.39;98722.94;5054424;28;20041;-76
2023/11/08 10:02:24;;;;;;;0.40;0.40;;;;;;;13.78;49.05;98719.69;5036342;28;20041;-76
2023/11/08 10:04:50;;;;;;;0.40;0.40;;;;;;;14.01;49.12;98724.53;5034871;28;20044;-76
2023/11/08 10:07:15;;;;;;;0.60;0.60;;;;;;;14.61;48.02;98719.16;5047331;28;20041;-76
2023/11/08 10:09:41;;;;;;;0.40;0.40;;;;;;;14.86;47.88;98722.16;5038327;28;20223;-76
2023/11/08 10:12:08;;;;;;;0.50;0.50;;;;;;;14.91;46.69;98714.13;5039668;28;20033;-76
2023/11/08 10:14:35;;;;;;;0.60;0.60;;;;;;;14.76;46.93;98706.81;5037948;28;20041;-76
2023/11/08 10:17:03;;;;;;;0.50;0.50;;;;;;;14.86;47.24;98708.72;5039824;28;20548;-76
2023/11/08 10:19:40;;;;;;;0.50;0.50;;;;;;;15.43;46.07;98707.53;5036627;28;20041;-76
2023/11/08 10:22:07;;;;;;;0.50;0.50;;;;;;;16.25;44.11;98699.22;5032518;28;20502;-76
2023/11/08 10:24:33;;;;;;;0.40;0.40;;;;;;;16.11;43.87;98688.38;5038896;28;20044;-76
2023/11/08 10:27:11;;;;;;;0.30;0.30;;;;;;;15.71;44.13;98691.63;5037488;28;20095;-76
2023/11/08 10:29:37;;;;;;;0.50;0.50;;;;;;;15.22;45.68;98689.38;5037069;28;20071;-76
2023/11/08 10:32:19;;;;;;;0.40;0.40;;;;;;;15.13;46.79;98698.25;5039764;28;20072;-76
2023/11/08 10:34:45;;;;;;;0.40;0.40;;;;;;;15.23;46.30;98692.97;5035857;28;20511;-76
2023/11/08 10:37:24;;;;;;;0.40;0.40;;;;;;;14.90;45.99;98691.75;5038804;28;20532;-76
2023/11/08 10:39:55;;;;;;;0.40;0.40;;;;;;;15.53;44.65;98693.28;5037794;28;20048;-76
2023/11/08 10:42:21;;;;;;;0.30;0.30;;;;;;;15.94;44.41;98689.13;5044249;28;20045;-77
2023/11/08 10:44:48;;;;;;;0.30;0.30;;;;;;;14.18;47.77;98697.91;5038319;28;20871;-76
2023/11/08 10:47:15;;;;;;;0.40;0.40;;;;;;;12.90;50.17;98692.19;5046102;28;20047;-76
2023/11/08 10:49:41;;;;;;;0.40;0.40;;;;;;;12.16;52.70;98696.88;5036637;28;20080;-76
2023/11/08 10:52:10;;;;;;;0.43;0.43;;;;;;;12.49;52.48;98694.03;5037827;28;20138;-76
2023/11/08 10:54:40;;;;;;;0.40;0.40;;;;;;;12.36;53.09;98692.88;5038237;28;20159;-76
2023/11/08 10:57:08;;;;;;;0.40;0.40;;;;;;;12.07;54.18;98692.22;5038155;28;20052;-76
2023/11/08 10:59:40;;;;;;;0.60;0.60;;;;;;;11.87;53.75;98688.19;5037661;28;20826;-76
2023/11/08 11:02:28;;;;;;;0.50;0.50;;;;;;;11.68;54.92;98689.50;5042025;28;20041;-78
2023/11/08 11:04:58;;;;;;;0.50;0.50;;;;;;;11.54;55.57;98682.03;5042311;28;20032;-77
2023/11/08 11:07:26;;;;;;;0.50;0.50;;;;;;;11.85;54.94;98680.16;5040360;28;20094;-76
2023/11/08 11:09:54;;;;;;;0.50;0.50;;;;;;;11.94;54.71;98683.03;5039469;28;20403;-76
2023/11/08 11:12:41;;;;;;;0.50;0.50;;;;;;;12.02;54.49;98675.16;5043658;28;20041;-76
2023/11/08 11:15:13;;;;;;;0.60;0.60;;;;;;;11.76;55.31;98663.88;5040690;28;20099;-76
2023/11/08 11:17:47;;;;;;;0.50;0.50;;;;;;;11.69;54.48;98657.47;5041135;28;20030;-76
2023/11/08 11:20:15;;;;;;;0.50;0.50;;;;;;;11.54;54.66;98667.78;5035296;28;20045;-76
2023/11/08 11:22:41;;;;;;;0.60;0.60;;;;;;;11.43;55.89;98658.63;5022702;28;20635;-77
2023/11/08 11:25:11;;;;;;;0.50;0.50;;;;;;;11.38;55.66;98666.50;5035456;28;20041;-76
2023/11/08 11:27:44;;;;;;;0.60;0.60;;;;;;;11.37;56.47;98659.38;5034773;28;20049;-76
2023/11/08 11:30:26;;;;;;;0.60;0.60;;;;;;;11.31;56.32;98656.56;5037619;28;20163;-76
2023/11/08 11:32:53;;;;;;;0.60;0.60;;;;;;;11.53;55.48;98666.88;5036084;28;20033;-76
2023/11/08 11:35:28;;;;;;;0.60;0.60;;;;;;;11.35;56.25;98660.19;5036719;28;20052;-76